Tacoma, WA (98401)

4:31 PM PDT on August 03, 2015 (GMT -0700)
APRSWXNET | | Change Station
CLOSE
Current Station
Personal Weather Station
Location: Tacoma, WA
Elevation: 275 ft
Nearby Weather Stations

Elev 275 ft 47.26 °N, 122.47 °W | Updated 22 minutes ago

Partly Cloudy
Partly Cloudy
82 °F
Feels Like 82 °F
N
2
Wind Variable Wind from SW
Gusts 5.0 mph

Today
High -- | Low -- °F
--% Chance of Precip.
Yesterday
High -- | Low -- °F
Precip. -- in
5:50 AM 8:40 PM
Waning Gibbous, 83% visible
Pressure 29.89 in
Visibility 10.0 miles
Clouds Clear
Heat Index 82 °F
Dew Point 57 °F
Humidity 43%
Rainfall in
Snow Depth Not available.
UV 7 out of 12
Pollen 4.30 out of 12
Air Quality Not available.
Flu Activity Not available.
METAR KTIW 032253Z 17009KT 10SM CLR 26/13 A2990 RMK AO2 SLP120 T02560133

More Conditions Fewer Conditions

Pressure 29.89 in
Visibility 10.0 miles
Clouds Clear
Heat Index 82 °F
Dew Point 57 °F
Humidity 43%
Rainfall in
Snow Depth Not available.
UV 7 out of 12
Pollen 4.30 out of 12
Air Quality Not available.
Flu Activity Not available.
METAR KTIW 032253Z 17009KT 10SM CLR 26/13 A2990 RMK AO2 SLP120 T02560133

More Conditions Fewer Conditions

10-Day Weather Forecast

×

Almanac

Astronomy

Aug. 03, 2015 Rise Set
Actual Time
Civil Twilight
Nautical Twilight
Astronomical Twilight
Moon
Length of Visible Light
Length of Day
Tomorrow will be .
, % of the Moon is Illuminated

Today's Extremes

State Highs State Lows

Community

WunderPhotos

Upload Photos

1,843,790 photos uploaded!

WunderBlogs® & News

Nearby

Air Quality

  Air Quality AQ Index Pollutant
Not available.

Snow Depth

Station Depth Elevation

Earthquake Activity

City Distance Mag. Time & Date
Minimum magnitude displayed is 2.5.

Coastal Water Temperatures

Place Temperature

Stations

Nearby Weather Stations

Station Location Temp. Windchill Dew Point Humidity Wind Precip. Elev Updated Type